Terminal Aerodrome Forecast
Issued by NWS Grand Forks, ND

Home | Current Version | Previous Version | Graphics & Text | Print | Product List | Glossary Off
Versions: 1 2 3 4 5 6 7 8 9 10 11 12 13 14 15 16 17 18 19 20

314
FTUS43 KFGF 170520
TAFFAR
TAF
KFAR 170520Z 1706/1806 19014KT P6SM FEW250
     FM172100 22015KT P6SM SKC=

USA.gov is the U.S. government's official web portal to all federal, state and local government web resources and services.